Time;durP1;ratioP1;P1;durP2;ratioP2;P2;SDS_P1;SDS_P2;PMS_P1;PMS_P2;Temp;Humidity;BMP_temperature;BMP_pressure;BME280_temperature;BME280_humidity;BME280_pressure;Samples;Min_cycle;Max_cycle;Signal;HPM_P1;HPM_P2
2021/09/12 00:04:26;;;;;;;8.02;7.03;;;;;;;18.97;81.76;100406.09;10248458;28;20318;-61
2021/09/12 00:09:28;;;;;;;9.73;5.80;;;;;;;18.84;81.70;100403.09;10249184;28;20488;-61
2021/09/12 00:14:29;;;;;;;7.85;5.97;;;;;;;18.76;82.07;100400.44;10246669;28;20314;-60
2021/09/12 00:19:31;;;;;;;7.70;6.93;;;;;;;18.63;81.72;100401.81;10242535;28;20078;-61
2021/09/12 00:24:32;;;;;;;7.80;6.93;;;;;;;18.53;80.35;100401.16;10247389;28;20512;-61
2021/09/12 00:29:34;;;;;;;7.13;6.63;;;;;;;18.55;81.31;100394.59;10247604;28;20193;-61
2021/09/12 00:34:35;;;;;;;6.43;5.82;;;;;;;18.59;80.19;100402.34;10245033;28;20508;-61
2021/09/12 00:39:37;;;;;;;5.47;4.85;;;;;;;18.52;80.16;100388.69;10258979;28;20137;-61
2021/09/12 00:44:38;;;;;;;7.53;6.78;;;;;;;18.50;79.85;100390.72;10243324;28;20055;-60
2021/09/12 00:49:42;;;;;;;6.88;5.82;;;;;;;18.55;80.34;100393.75;10246964;28;20125;-61
2021/09/12 00:54:44;;;;;;;6.93;5.50;;;;;;;18.56;80.60;100395.44;10245358;28;20145;-61
2021/09/12 00:59:48;;;;;;;7.50;5.45;;;;;;;18.47;79.85;100386.50;10243318;28;20528;-61
2021/09/12 01:04:50;;;;;;;7.20;6.50;;;;;;;18.47;79.71;100380.28;10242831;28;20416;-61
2021/09/12 01:09:52;;;;;;;8.23;6.93;;;;;;;18.46;79.85;100387.50;10243633;28;20046;-61
2021/09/12 01:14:55;;;;;;;6.40;5.15;;;;;;;18.53;79.81;100391.22;10242305;28;20078;-60
2021/09/12 01:19:57;;;;;;;8.98;6.00;;;;;;;18.60;79.31;100387.81;10242187;28;20210;-60
2021/09/12 01:24:59;;;;;;;7.15;6.53;;;;;;;18.66;79.47;100397.91;10242457;28;20070;-61
2021/09/12 01:30:01;;;;;;;7.35;6.75;;;;;;;18.71;79.81;100391.00;10239089;28;20121;-61
2021/09/12 01:35:04;;;;;;;7.30;6.68;;;;;;;18.70;79.53;100386.59;10233730;28;20106;-60
2021/09/12 01:40:06;;;;;;;6.53;5.53;;;;;;;18.73;79.44;100380.91;10235519;28;20141;-62
2021/09/12 01:45:07;;;;;;;8.52;6.82;;;;;;;18.61;79.79;100374.16;10262231;23;20125;-55
2021/09/12 01:50:09;;;;;;;6.68;6.07;;;;;;;18.70;78.90;100364.22;10285901;28;20058;-56
2021/09/12 01:55:11;;;;;;;6.97;6.38;;;;;;;18.75;79.07;100372.63;10286325;28;20046;-53
2021/09/12 02:00:13;;;;;;;6.13;5.63;;;;;;;18.79;79.23;100362.31;10285863;28;20542;-55
2021/09/12 02:05:14;;;;;;;7.25;6.55;;;;;;;18.82;79.40;100372.75;10287737;28;20046;-55
2021/09/12 02:10:16;;;;;;;7.55;6.95;;;;;;;18.78;79.34;100366.03;10287032;28;20057;-57
2021/09/12 02:15:17;;;;;;;6.43;5.82;;;;;;;18.75;80.34;100375.31;10285070;28;20201;-56
2021/09/12 02:20:19;;;;;;;7.43;6.82;;;;;;;18.70;80.53;100375.00;10285739;28;20066;-55
2021/09/12 02:25:21;;;;;;;7.88;7.18;;;;;;;18.72;80.34;100373.81;10288852;28;20058;-55
2021/09/12 02:30:22;;;;;;;7.60;6.80;;;;;;;18.73;80.12;100380.91;10285259;28;20065;-56
2021/09/12 02:35:24;;;;;;;7.47;6.72;;;;;;;18.67;80.20;100373.47;10284627;28;20039;-55
2021/09/12 02:40:25;;;;;;;8.93;8.05;;;;;;;18.70;80.45;100383.91;10288554;28;20069;-54
2021/09/12 02:45:27;;;;;;;7.07;6.32;;;;;;;18.69;79.91;100378.69;10247137;28;20070;-55
2021/09/12 02:50:28;;;;;;;7.88;7.10;;;;;;;18.69;79.97;100374.16;10245251;28;20070;-56
2021/09/12 02:55:30;;;;;;;7.05;6.25;;;;;;;18.72;79.80;100363.03;10247908;28;20055;-55
2021/09/12 03:00:31;;;;;;;5.80;5.30;;;;;;;18.73;78.55;100361.16;10247395;28;20114;-56
2021/09/12 03:05:33;;;;;;;6.85;6.15;;;;;;;18.67;78.21;100360.00;10248740;28;20046;-54
2021/09/12 03:10:34;;;;;;;6.90;6.20;;;;;;;18.57;79.53;100362.06;10247339;28;20102;-55
2021/09/12 03:15:36;;;;;;;6.43;5.57;;;;;;;18.49;78.84;100362.09;10245470;28;20061;-55
2021/09/12 03:20:37;;;;;;;7.43;5.43;;;;;;;18.43;78.06;100354.69;10284474;28;20101;-55
2021/09/12 03:25:39;;;;;;;5.95;4.95;;;;;;;18.47;78.27;100364.13;10283423;28;20082;-55
2021/09/12 03:30:40;;;;;;;4.80;4.40;;;;;;;18.44;77.99;100359.06;10287893;28;20109;-55
2021/09/12 03:35:42;;;;;;;5.70;5.07;;;;;;;18.35;78.32;100360.94;10294865;28;20052;-56
2021/09/12 03:40:44;;;;;;;5.20;4.70;;;;;;;18.20;79.13;100336.56;10294103;28;20054;-55
2021/09/12 03:45:45;;;;;;;5.75;5.30;;;;;;;18.30;79.16;100358.78;10294802;28;20058;-54
2021/09/12 03:50:47;;;;;;;6.13;5.05;;;;;;;18.29;79.52;100357.06;10292761;28;20054;-55
2021/09/12 03:55:48;;;;;;;6.85;6.10;;;;;;;18.07;79.30;100314.69;10294857;28;20077;-56
2021/09/12 04:00:50;;;;;;;7.10;6.28;;;;;;;18.29;80.04;100354.38;10290531;28;20050;-55
2021/09/12 04:05:52;;;;;;;8.02;6.75;;;;;;;18.30;80.40;100353.38;10292333;28;20072;-54
2021/09/12 04:10:53;;;;;;;9.65;6.38;;;;;;;18.36;80.35;100352.69;10290043;28;20070;-56
2021/09/12 04:15:54;;;;;;;6.18;5.50;;;;;;;18.30;79.97;100364.16;10290519;28;20050;-55
2021/09/12 04:20:56;;;;;;;8.10;6.45;;;;;;;18.21;79.49;100359.81;10295084;28;20110;-54
2021/09/12 04:25:57;;;;;;;8.60;5.97;;;;;;;18.14;80.69;100353.41;10290259;28;20129;-56
2021/09/12 04:30:59;;;;;;;6.60;6.13;;;;;;;18.13;79.91;100359.78;10292906;28;20061;-60
2021/09/12 04:36:00;;;;;;;7.35;6.63;;;;;;;18.10;81.17;100357.44;10296268;28;20094;-55
2021/09/12 04:41:02;;;;;;;5.88;5.47;;;;;;;18.11;79.98;100362.66;10292130;28;20058;-55
2021/09/12 04:46:03;;;;;;;5.57;4.97;;;;;;;18.15;79.29;100360.47;10287431;28;20058;-56
2021/09/12 04:51:05;;;;;;;11.35;4.72;;;;;;;18.12;77.22;100363.50;10287811;28;20149;-55
2021/09/12 04:56:06;;;;;;;6.43;4.25;;;;;;;18.11;77.54;100364.53;10287614;28;20042;-56
2021/09/12 05:01:08;;;;;;;5.40;4.90;;;;;;;18.00;77.28;100363.03;10288168;28;20074;-55
2021/09/12 05:06:14;;;;;;;7.68;4.88;;;;;;;17.85;77.36;100371.72;10288845;28;20051;-57
2021/09/12 05:11:16;;;;;;;6.22;5.63;;;;;;;17.78;77.38;100377.97;10289021;28;20411;-55
2021/09/12 05:16:18;;;;;;;6.88;5.28;;;;;;;17.66;77.88;100378.28;10284825;28;20050;-56
2021/09/12 05:21:19;;;;;;;8.35;5.97;;;;;;;17.66;78.70;100386.34;10288355;28;20054;-56
2021/09/12 05:26:20;;;;;;;6.32;5.35;;;;;;;17.57;78.44;100373.91;10280285;28;20077;-54
2021/09/12 05:31:22;;;;;;;6.78;5.22;;;;;;;17.48;79.53;100388.34;10284466;28;20070;-56
2021/09/12 05:36:23;;;;;;;6.75;6.10;;;;;;;17.50;79.50;100386.31;10287620;28;20050;-55
2021/09/12 05:41:25;;;;;;;7.47;6.32;;;;;;;17.48;79.55;100388.34;10285422;28;20575;-56
2021/09/12 05:46:27;;;;;;;6.47;5.75;;;;;;;17.28;79.16;100385.97;10289055;28;20447;-54
2021/09/12 05:51:29;;;;;;;6.05;5.50;;;;;;;17.35;79.45;100388.00;10281472;28;20129;-58
2021/09/12 05:56:30;;;;;;;6.70;5.40;;;;;;;17.50;79.62;100399.78;10279795;28;20121;-55
2021/09/12 06:01:31;;;;;;;7.03;5.68;;;;;;;17.57;79.02;100392.75;10275856;28;20077;-57
2021/09/12 06:06:33;;;;;;;7.43;6.00;;;;;;;17.63;78.96;100389.38;10289215;28;20559;-56
2021/09/12 06:11:35;;;;;;;4.93;4.53;;;;;;;17.76;78.70;100402.34;10281237;28;20120;-56
2021/09/12 06:16:36;;;;;;;5.65;3.92;;;;;;;17.96;78.48;100410.97;10276636;28;20066;-54
2021/09/12 06:21:38;;;;;;;6.95;6.25;;;;;;;18.08;78.89;100405.25;10280606;28;20054;-54
2021/09/12 06:26:39;;;;;;;6.95;6.25;;;;;;;18.06;76.11;100401.88;10278233;28;20093;-57
2021/09/12 06:31:42;;;;;;;6.90;6.03;;;;;;;18.24;75.62;100415.16;10280661;28;20227;-56
2021/09/12 06:36:44;;;;;;;10.40;5.40;;;;;;;18.38;75.91;100415.31;10281150;28;20046;-58
2021/09/12 06:41:46;;;;;;;6.88;6.20;;;;;;;18.38;73.91;100419.88;10281700;28;20058;-56
2021/09/12 06:46:47;;;;;;;6.45;5.88;;;;;;;18.56;73.33;100417.00;10279564;28;20070;-57
2021/09/12 06:51:49;;;;;;;5.63;5.07;;;;;;;18.45;71.57;100420.03;10280271;28;20061;-56
2021/09/12 06:56:50;;;;;;;5.25;4.75;;;;;;;18.52;72.15;100426.44;10279536;28;20077;-54
2021/09/12 07:01:52;;;;;;;4.97;4.55;;;;;;;18.53;71.89;100417.34;10277661;28;20077;-57
2021/09/12 07:06:53;;;;;;;5.30;4.40;;;;;;;18.63;71.59;100417.13;10279393;28;20054;-55
2021/09/12 07:11:55;;;;;;;5.50;5.03;;;;;;;18.84;71.60;100422.81;10288901;28;20124;-57
2021/09/12 07:17:15;;;;;;;5.45;4.95;;;;;;;19.02;70.96;100421.75;10287689;28;20613;-55
2021/09/12 07:22:16;;;;;;;5.85;4.60;;;;;;;19.18;70.22;100427.09;10284933;28;20088;-57
2021/09/12 07:27:18;;;;;;;5.57;5.18;;;;;;;19.18;69.25;100426.25;10286820;28;20454;-55
2021/09/12 07:32:32;;;;;;;;;;;;;;;19.28;69.11;100397.19;10287390;28;20051;-57
2021/09/12 07:37:33;;;;;;;4.78;4.18;;;;;;;19.52;70.11;100428.59;10284516;28;20041;-55
2021/09/12 07:42:35;;;;;;;4.63;4.22;;;;;;;19.74;68.84;100424.25;10283784;28;20504;-56
2021/09/12 07:47:36;;;;;;;5.93;5.43;;;;;;;19.83;68.72;100429.63;10295671;23;20141;-62
2021/09/12 07:52:42;;;;;;;4.60;4.28;;;;;;;19.92;68.35;100433.94;10286818;28;20085;-64
2021/09/12 07:57:44;;;;;;;5.97;5.40;;;;;;;20.05;67.05;100434.16;10289020;28;20493;-59
2021/09/12 08:02:45;;;;;;;4.70;4.30;;;;;;;20.24;66.68;100434.72;10287536;28;20082;-62
2021/09/12 08:07:47;;;;;;;5.55;5.05;;;;;;;20.48;65.56;100442.56;10285264;28;20145;-62
2021/09/12 08:12:49;;;;;;;4.43;3.80;;;;;;;20.69;65.45;100435.66;10291393;28;20827;-60
2021/09/12 08:17:51;;;;;;;5.78;3.97;;;;;;;20.70;65.50;100431.91;10278410;28;20050;-59
2021/09/12 08:22:52;;;;;;;4.47;2.95;;;;;;;21.02;63.91;100440.69;10284762;28;20074;-62
2021/09/12 08:27:54;;;;;;;4.05;3.65;;;;;;;21.30;62.30;100448.97;10290429;28;20058;-62
2021/09/12 08:32:55;;;;;;;4.75;2.92;;;;;;;21.53;61.87;100437.19;10287290;28;20070;-60
2021/09/12 08:37:57;;;;;;;4.30;3.97;;;;;;;21.64;61.84;100443.97;10285551;28;20133;-62
2021/09/12 08:42:59;;;;;;;3.72;3.20;;;;;;;21.70;61.36;100437.78;10275426;28;20545;-63
2021/09/12 08:48:02;;;;;;;2.83;2.60;;;;;;;21.86;60.44;100453.78;10259867;28;20059;-62
2021/09/12 08:53:03;;;;;;;3.20;2.90;;;;;;;21.74;60.72;100449.91;10257957;28;20113;-62
2021/09/12 08:58:05;;;;;;;3.88;2.95;;;;;;;22.29;59.19;100446.66;10285506;28;20081;-62
2021/09/12 09:03:06;;;;;;;2.80;2.25;;;;;;;22.88;57.88;100451.72;10258353;28;20070;-61
2021/09/12 09:08:13;;;;;;;2.75;1.60;;;;;;;23.12;55.74;100449.59;10268248;28;20058;-65
2021/09/12 09:13:34;;;;;;;2.97;2.70;;;;;;;23.13;54.90;100437.66;10250992;28;20152;-61
2021/09/12 09:18:42;;;;;;;2.85;1.73;;;;;;;23.44;55.21;100430.91;10271759;28;20063;-61
2021/09/12 09:23:44;;;;;;;2.03;1.75;;;;;;;23.96;54.30;100433.97;10268807;28;20136;-61
2021/09/12 09:28:55;;;;;;;2.67;1.65;;;;;;;23.97;51.92;100417.44;10248617;28;20047;-61
2021/09/12 09:34:11;;;;;;;2.85;1.30;;;;;;;24.18;52.00;100418.31;10271392;28;20051;-61
2021/09/12 09:39:15;;;;;;;2.00;1.38;;;;;;;24.56;51.46;100414.94;10265976;28;20053;-62
2021/09/12 09:44:22;;;;;;;4.05;1.10;;;;;;;24.73;50.21;100417.25;10249947;28;20070;-62
2021/09/12 09:49:29;;;;;;;1.33;1.20;;;;;;;25.00;49.79;100415.28;10260533;28;20110;-62
2021/09/12 09:54:33;;;;;;;1.90;1.38;;;;;;;25.74;47.71;100416.59;10280230;28;20134;-61
2021/09/12 09:59:34;;;;;;;1.58;1.48;;;;;;;26.79;44.81;100406.91;10249181;28;20046;-62
2021/09/12 10:04:38;;;;;;;2.47;1.40;;;;;;;27.42;42.82;100404.91;10244559;28;20085;-62
2021/09/12 10:09:44;;;;;;;1.45;1.35;;;;;;;28.72;41.63;100402.41;10246544;28;20054;-62
2021/09/12 10:15:00;;;;;;;1.73;1.57;;;;;;;33.57;32.74;100387.91;10235129;28;20087;-63
2021/09/12 10:20:10;;;;;;;1.52;0.98;;;;;;;35.73;29.21;100386.44;10260023;28;20129;-64
2021/09/12 10:25:12;;;;;;;2.55;0.60;;;;;;;35.29;27.02;100381.78;10246164;28;20074;-63
2021/09/12 10:30:21;;;;;;;2.03;0.85;;;;;;;32.32;31.20;100371.06;10256663;28;20221;-63
2021/09/12 10:35:26;;;;;;;1.92;1.83;;;;;;;30.68;33.29;100373.81;10258846;28;20136;-63
2021/09/12 10:40:47;;;;;;;2.33;1.80;;;;;;;32.33;31.69;100358.16;10246043;28;20046;-65
2021/09/12 10:46:09;;;;;;;0.90;0.90;;;;;;;35.60;26.15;100354.72;10261465;28;21765;-62
2021/09/12 10:51:12;;;;;;;1.38;1.27;;;;;;;39.49;21.65;100362.06;10231840;28;20113;-61
2021/09/12 10:56:17;;;;;;;0.75;0.60;;;;;;;41.15;19.07;100350.84;10244022;28;20058;-61
2021/09/12 11:01:46;;;;;;;1.08;0.63;;;;;;;41.36;17.97;100347.44;10256099;28;20191;-62
2021/09/12 11:06:58;;;;;;;0.63;0.40;;;;;;;43.01;17.12;100334.03;10243911;28;20053;-62
2021/09/12 11:12:05;;;;;;;1.20;0.80;;;;;;;42.72;17.33;100335.69;10234944;28;20186;-62
2021/09/12 11:17:08;;;;;;;1.33;0.57;;;;;;;43.91;16.34;100334.53;10241272;28;20320;-60
2021/09/12 11:22:10;;;;;;;2.53;0.43;;;;;;;43.39;15.04;100319.03;10258656;28;20117;-61
2021/09/12 11:27:12;;;;;;;1.52;0.32;;;;;;;44.36;15.79;100316.00;10269441;28;20090;-61
2021/09/12 11:32:20;;;;;;;1.05;0.60;;;;;;;37.14;22.24;100314.28;10272036;28;20046;-62
2021/09/12 11:37:22;;;;;;;2.28;1.65;;;;;;;33.43;26.62;100309.50;10264835;28;20097;-62
2021/09/12 11:42:25;;;;;;;1.63;0.90;;;;;;;33.53;26.52;100301.25;10264801;28;20055;-62
2021/09/12 11:47:28;;;;;;;1.85;0.80;;;;;;;39.93;20.18;100298.28;10246112;28;20051;-62
2021/09/12 11:52:42;;;;;;;1.05;0.65;;;;;;;42.78;16.15;100292.34;10276626;28;20137;-65
2021/09/12 11:58:02;;;;;;;1.35;0.57;;;;;;;43.83;15.22;100282.19;10258501;28;20054;-63
2021/09/12 12:03:05;;;;;;;0.80;0.80;;;;;;;35.47;23.57;100289.78;10243868;28;20141;-61
2021/09/12 12:08:10;;;;;;;2.38;0.77;;;;;;;33.05;27.16;100286.84;10237629;28;20065;-63
2021/09/12 12:13:11;;;;;;;1.88;0.82;;;;;;;31.27;29.02;100289.03;10266378;28;20178;-63
2021/09/12 12:18:15;;;;;;;1.83;1.05;;;;;;;29.65;31.37;100283.63;10257998;28;20047;-63
2021/09/12 12:23:20;;;;;;;1.67;1.00;;;;;;;34.83;24.87;100281.38;10251490;28;20058;-62
2021/09/12 12:28:23;;;;;;;1.33;1.02;;;;;;;39.21;19.76;100269.50;10268206;28;20515;-61
2021/09/12 12:33:25;;;;;;;1.90;0.73;;;;;;;39.94;18.80;100275.69;10258989;28;20054;-61
2021/09/12 12:38:27;;;;;;;1.10;0.70;;;;;;;39.85;19.71;100269.25;10265737;28;20137;-61
2021/09/12 12:43:28;;;;;;;1.55;0.75;;;;;;;41.11;17.94;100264.16;10256751;28;20058;-61
2021/09/12 12:48:32;;;;;;;1.02;0.65;;;;;;;41.45;17.31;100262.50;10255958;28;20167;-62
2021/09/12 12:53:44;;;;;;;0.88;0.43;;;;;;;41.91;16.68;100256.47;10266399;28;20169;-62
2021/09/12 12:58:46;;;;;;;0.88;0.50;;;;;;;41.23;17.24;100257.06;10283764;28;20046;-61
2021/09/12 13:03:47;;;;;;;1.48;0.35;;;;;;;40.49;19.04;100258.84;10285720;28;20105;-61
2021/09/12 13:08:50;;;;;;;1.48;0.63;;;;;;;37.96;20.60;100253.78;10282880;28;20124;-65
2021/09/12 13:13:52;;;;;;;0.95;0.43;;;;;;;36.06;22.71;100248.25;10283276;28;20192;-62
2021/09/12 13:18:53;;;;;;;1.20;0.40;;;;;;;32.23;27.75;100246.88;10292344;28;20543;-61
2021/09/12 13:23:55;;;;;;;1.00;0.65;;;;;;;31.64;28.61;100231.34;10278894;28;20492;-62
2021/09/12 13:28:56;;;;;;;0.63;0.40;;;;;;;31.49;29.23;100233.94;10280797;28;20057;-62
2021/09/12 13:33:59;;;;;;;1.20;0.60;;;;;;;30.58;30.01;100236.38;10281440;28;20129;-62
2021/09/12 13:39:00;;;;;;;2.70;0.52;;;;;;;29.79;30.47;100234.72;10242844;28;20050;-62
2021/09/12 13:44:02;;;;;;;;;;;;;;;30.08;30.05;100229.13;10244453;28;20059;-61
2021/09/12 13:49:06;;;;;;;2.45;0.60;;;;;;;30.19;29.90;100219.94;10255251;28;19930;-62
2021/09/12 13:54:08;;;;;;;0.93;0.68;;;;;;;30.18;29.43;100218.28;10260755;28;20046;-62
2021/09/12 13:59:10;;;;;;;;;;;;;;;30.14;29.33;100217.13;10256592;28;20065;-65
2021/09/12 14:04:12;;;;;;;2.05;1.02;;;;;;;29.79;30.53;100212.78;10280380;28;19937;-61
2021/09/12 14:09:13;;;;;;;1.25;0.60;;;;;;;29.25;30.43;100219.63;10272958;28;20096;-61
2021/09/12 14:14:15;;;;;;;1.73;0.50;;;;;;;28.95;31.40;100216.31;10277273;28;20062;-62
2021/09/12 14:19:16;;;;;;;1.75;0.68;;;;;;;28.63;32.01;100208.59;10261213;28;20058;-61
2021/09/12 14:24:18;;;;;;;1.15;0.60;;;;;;;28.33;32.61;100205.00;10251780;28;20125;-61
2021/09/12 14:29:19;;;;;;;1.90;0.90;;;;;;;28.09;32.95;100206.97;10253960;28;20051;-60
2021/09/12 14:34:21;;;;;;;2.77;0.70;;;;;;;27.76;33.16;100204.81;10245044;28;20058;-62
2021/09/12 14:39:23;;;;;;;1.43;0.40;;;;;;;27.53;34.29;100198.25;10239244;28;20137;-61
2021/09/12 14:44:24;;;;;;;0.70;0.63;;;;;;;26.99;34.19;100193.66;10259948;28;20089;-62
2021/09/12 14:49:26;;;;;;;0.90;0.73;;;;;;;26.94;34.58;100201.72;10268193;28;20067;-61
2021/09/12 14:54:27;;;;;;;1.05;0.65;;;;;;;26.54;35.25;100190.50;10272835;28;20320;-61
2021/09/12 14:59:29;;;;;;;1.40;0.88;;;;;;;26.40;35.36;100200.75;10274049;28;20470;-62
2021/09/12 15:04:30;;;;;;;1.23;0.90;;;;;;;26.07;35.79;100202.00;10274485;28;20129;-65
2021/09/12 15:09:32;;;;;;;1.90;0.80;;;;;;;25.75;36.30;100197.47;10274213;28;20092;-61
2021/09/12 15:14:33;;;;;;;2.40;0.90;;;;;;;25.64;35.80;100197.38;10276003;28;20076;-60
2021/09/12 15:19:35;;;;;;;2.45;0.75;;;;;;;25.17;37.14;100192.28;10276321;28;20490;-59
2021/09/12 15:24:36;;;;;;;0.90;0.50;;;;;;;24.88;37.69;100195.41;10271635;28;20460;-62
2021/09/12 15:29:37;;;;;;;1.20;0.70;;;;;;;24.84;37.50;100187.91;10280767;28;20507;-62
2021/09/12 15:34:40;;;;;;;1.35;1.02;;;;;;;24.76;39.21;100177.31;10284307;28;20060;-62
2021/09/12 15:39:41;;;;;;;1.60;1.17;;;;;;;24.97;37.70;100176.94;10284088;28;20108;-62
2021/09/12 15:44:43;;;;;;;1.10;0.80;;;;;;;24.64;38.92;100167.09;10281030;28;20077;-61
2021/09/12 15:49:45;;;;;;;1.00;0.80;;;;;;;25.06;38.11;100178.34;10284494;28;20547;-60
2021/09/12 15:54:46;;;;;;;1.33;0.53;;;;;;;25.10;37.92;100169.72;10281125;28;20086;-61
2021/09/12 15:59:48;;;;;;;2.50;1.20;;;;;;;24.90;38.80;100165.25;10286676;28;20097;-62
2021/09/12 16:04:49;;;;;;;2.35;1.65;;;;;;;24.76;38.59;100164.50;10283456;28;20062;-60
2021/09/12 16:09:51;;;;;;;2.30;0.82;;;;;;;24.52;39.13;100166.09;10280846;28;20126;-65
2021/09/12 16:14:52;;;;;;;1.55;0.65;;;;;;;24.50;39.03;100166.31;10284157;28;20058;-61
2021/09/12 16:19:54;;;;;;;0.57;0.40;;;;;;;24.50;43.25;100165.47;10282200;28;20476;-58
2021/09/12 16:24:55;;;;;;;2.58;0.77;;;;;;;24.61;42.33;100169.44;10280213;28;20062;-55
2021/09/12 16:29:56;;;;;;;1.02;0.80;;;;;;;24.61;40.77;100159.38;10279204;28;20197;-58
2021/09/12 16:34:58;;;;;;;1.35;1.08;;;;;;;24.29;42.15;100170.19;10281334;28;20129;-59
2021/09/12 16:39:59;;;;;;;1.77;0.90;;;;;;;24.06;41.77;100164.41;10281046;28;20093;-58
2021/09/12 16:45:05;;;;;;;1.10;0.80;;;;;;;24.06;41.88;100169.84;10261637;28;20070;-62
2021/09/12 16:50:07;;;;;;;1.42;0.80;;;;;;;23.88;42.60;100168.63;10255307;28;20582;-57
2021/09/12 16:55:09;;;;;;;1.05;0.82;;;;;;;23.71;42.89;100162.81;10241531;28;20140;-57
2021/09/12 17:00:10;;;;;;;1.40;1.02;;;;;;;23.75;43.12;100157.75;10239012;28;20062;-59
2021/09/12 17:05:12;;;;;;;1.40;0.90;;;;;;;23.42;43.41;100156.78;10256410;28;20051;-57
2021/09/12 17:10:13;;;;;;;1.80;1.00;;;;;;;23.46;43.51;100155.34;10257791;28;20141;-55
2021/09/12 17:15:17;;;;;;;1.55;1.30;;;;;;;23.40;44.27;100158.03;10272705;28;20120;-57
2021/09/12 17:20:18;;;;;;;1.65;1.02;;;;;;;23.01;44.52;100146.09;10246844;28;20078;-56
2021/09/12 17:25:22;;;;;;;2.42;1.40;;;;;;;23.07;45.52;100167.00;10266481;28;20467;-58
2021/09/12 17:30:23;;;;;;;;;;;;;;;22.91;46.08;100169.06;10268462;28;20046;-58
2021/09/12 17:35:30;;;;;;;2.92;2.03;;;;;;;22.68;45.74;100171.31;10260408;28;20348;-56
2021/09/12 17:40:31;;;;;;;2.67;1.70;;;;;;;22.74;46.12;100178.63;10263548;28;20140;-57
2021/09/12 17:45:33;;;;;;;2.30;1.73;;;;;;;22.55;47.13;100170.25;10278537;28;20488;-57
2021/09/12 17:50:35;;;;;;;2.78;1.23;;;;;;;22.51;46.85;100176.28;10280427;28;20940;-58
2021/09/12 17:55:36;;;;;;;3.50;2.20;;;;;;;22.48;48.08;100180.22;10278491;28;20055;-56
2021/09/12 18:00:38;;;;;;;3.40;1.60;;;;;;;22.51;47.53;100177.09;10280359;28;20054;-59
2021/09/12 18:05:39;;;;;;;3.15;1.73;;;;;;;22.53;47.51;100187.75;10279409;28;20076;-57
2021/09/12 18:10:41;;;;;;;3.08;1.80;;;;;;;22.51;47.39;100184.41;10277110;28;20515;-56
2021/09/12 18:15:42;;;;;;;2.83;1.98;;;;;;;22.45;47.81;100194.19;10244189;28;20067;-58
2021/09/12 18:20:44;;;;;;;2.58;1.63;;;;;;;22.37;48.35;100197.09;10233313;28;20141;-55
2021/09/12 18:25:47;;;;;;;4.45;1.60;;;;;;;22.30;48.82;100196.19;10235708;28;20074;-55
2021/09/12 18:30:49;;;;;;;3.20;1.65;;;;;;;22.24;48.84;100204.09;10233126;28;20134;-58
2021/09/12 18:35:50;;;;;;;2.67;1.70;;;;;;;22.18;49.10;100214.91;10243377;28;20087;-60
2021/09/12 18:40:52;;;;;;;3.72;1.73;;;;;;;22.11;49.24;100211.31;10270570;28;20062;-62
2021/09/12 18:45:54;;;;;;;2.35;2.05;;;;;;;22.02;49.73;100216.06;10275318;28;20061;-61
2021/09/12 18:50:59;;;;;;;2.63;2.40;;;;;;;21.93;49.77;100220.81;10278720;28;20046;-57
2021/09/12 18:56:00;;;;;;;2.10;1.73;;;;;;;21.89;50.60;100225.78;10280026;28;20046;-60
2021/09/12 19:01:02;;;;;;;4.93;2.60;;;;;;;21.82;50.89;100243.88;10280277;28;20062;-61
2021/09/12 19:06:04;;;;;;;4.33;2.50;;;;;;;21.76;51.01;100247.38;10287993;28;20061;-55
2021/09/12 19:11:06;;;;;;;4.00;2.45;;;;;;;21.69;51.44;100241.91;10287997;28;20070;-58
2021/09/12 19:16:08;;;;;;;5.03;2.95;;;;;;;21.60;51.75;100226.00;10289397;28;20174;-59
2021/09/12 19:21:09;;;;;;;6.45;2.97;;;;;;;21.62;51.98;100243.72;10288779;28;20062;-58
2021/09/12 19:26:11;;;;;;;4.15;2.97;;;;;;;21.50;52.20;100237.19;10286251;28;20687;-59
2021/09/12 19:31:12;;;;;;;2.78;2.25;;;;;;;21.50;52.46;100248.84;10283358;28;20054;-56
2021/09/12 19:36:14;;;;;;;3.15;2.60;;;;;;;21.45;52.56;100250.41;10290229;28;20072;-62
2021/09/12 19:41:16;;;;;;;4.63;2.80;;;;;;;21.39;52.94;100257.44;10287359;28;20078;-63
2021/09/12 19:46:18;;;;;;;4.00;3.08;;;;;;;21.38;53.48;100255.78;10286878;28;20127;-62
2021/09/12 19:51:19;;;;;;;4.63;3.00;;;;;;;21.33;53.98;100266.34;10282082;28;20061;-58
2021/09/12 19:56:21;;;;;;;4.60;3.47;;;;;;;21.31;54.13;100263.00;10284361;28;20140;-57
2021/09/12 20:01:22;;;;;;;2.85;2.55;;;;;;;21.19;54.12;100263.50;10261957;28;20749;-57
2021/09/12 20:06:24;;;;;;;3.47;2.55;;;;;;;21.19;53.91;100263.50;10279461;28;20062;-57
2021/09/12 20:11:26;;;;;;;2.47;2.28;;;;;;;21.13;54.08;100267.00;10284949;28;20105;-57
2021/09/12 20:16:28;;;;;;;4.40;2.30;;;;;;;21.11;54.44;100271.75;10279546;28;20106;-57
2021/09/12 20:21:32;;;;;;;4.00;2.90;;;;;;;21.05;55.04;100267.13;10282305;28;20061;-62
2021/09/12 20:26:33;;;;;;;3.75;2.88;;;;;;;21.00;55.14;100274.97;10279550;28;20549;-64
2021/09/12 20:31:35;;;;;;;4.53;2.88;;;;;;;20.89;55.00;100268.19;10275400;28;20093;-63
2021/09/12 20:36:36;;;;;;;3.03;2.60;;;;;;;20.78;56.06;100280.34;10278422;28;20186;-63
2021/09/12 20:41:38;;;;;;;3.22;2.67;;;;;;;20.71;55.57;100295.66;10278404;28;20132;-63
2021/09/12 20:46:39;;;;;;;3.97;3.28;;;;;;;20.65;55.95;100288.25;10281563;28;20129;-63
2021/09/12 20:51:41;;;;;;;3.53;1.98;;;;;;;20.60;55.19;100293.41;10280919;28;20475;-63
2021/09/12 20:56:42;;;;;;;4.25;2.50;;;;;;;20.58;55.03;100295.44;10281185;28;20137;-63
2021/09/12 21:01:43;;;;;;;2.97;2.45;;;;;;;20.38;56.44;100296.03;10267309;28;20670;-63
2021/09/12 21:06:45;;;;;;;2.67;2.22;;;;;;;20.29;56.28;100303.38;10279370;28;20510;-64
2021/09/12 21:11:47;;;;;;;2.90;2.15;;;;;;;20.32;55.69;100304.88;10281035;28;20138;-63
2021/09/12 21:16:49;;;;;;;3.45;1.70;;;;;;;20.26;55.26;100303.75;10278192;28;20364;-63
2021/09/12 21:21:50;;;;;;;3.50;2.03;;;;;;;20.22;55.66;100302.47;10276497;28;20370;-64
2021/09/12 21:26:52;;;;;;;4.28;1.90;;;;;;;20.21;56.08;100308.88;10249026;28;20839;-64
2021/09/12 21:31:53;;;;;;;2.95;2.10;;;;;;;20.14;56.62;100319.59;10283645;28;20078;-64
2021/09/12 21:36:55;;;;;;;2.13;1.92;;;;;;;20.03;56.57;100311.94;10285916;28;20313;-64
2021/09/12 21:41:56;;;;;;;2.92;2.13;;;;;;;19.98;56.80;100319.75;10294348;28;20717;-63
2021/09/12 21:46:58;;;;;;;3.67;2.00;;;;;;;19.92;57.42;100315.06;10291926;28;20066;-64
2021/09/12 21:51:59;;;;;;;3.05;1.83;;;;;;;19.84;57.86;100329.50;10294845;28;21015;-63
2021/09/12 21:57:00;;;;;;;2.70;2.40;;;;;;;19.78;58.07;100320.25;10288914;28;20132;-63
2021/09/12 22:02:02;;;;;;;4.55;2.63;;;;;;;19.71;57.95;100327.41;10288637;28;20034;-61
2021/09/12 22:07:04;;;;;;;3.78;2.40;;;;;;;19.67;58.14;100327.94;10289580;28;20162;-62
2021/09/12 22:12:05;;;;;;;4.05;2.35;;;;;;;19.60;58.00;100325.13;10288895;28;20046;-61
2021/09/12 22:17:07;;;;;;;3.28;2.50;;;;;;;19.58;58.36;100337.97;10289602;28;20050;-61
2021/09/12 22:22:09;;;;;;;3.28;2.20;;;;;;;19.52;58.44;100333.28;10287551;28;20064;-61
2021/09/12 22:27:10;;;;;;;3.83;2.33;;;;;;;19.51;58.33;100339.69;10287721;28;20084;-60
2021/09/12 22:32:16;;;;;;;2.60;1.98;;;;;;;19.47;58.22;100333.84;10294039;28;20054;-61
2021/09/12 22:37:17;;;;;;;3.85;2.00;;;;;;;19.46;58.26;100336.72;10286576;28;20098;-61
2021/09/12 22:42:19;;;;;;;3.92;2.33;;;;;;;19.46;58.09;100336.72;10282880;28;20468;-61
2021/09/12 22:47:20;;;;;;;3.28;2.03;;;;;;;19.36;58.26;100332.38;10288523;28;20069;-61
2021/09/12 22:52:22;;;;;;;2.90;2.40;;;;;;;19.38;58.38;100340.28;10288182;28;20423;-62
2021/09/12 22:57:23;;;;;;;4.40;2.58;;;;;;;19.28;59.16;100345.09;10290204;28;20429;-64
2021/09/12 23:02:25;;;;;;;6.07;2.55;;;;;;;19.35;59.41;100340.63;10247704;28;20133;-62
2021/09/12 23:07:27;;;;;;;3.85;2.67;;;;;;;19.31;59.78;100336.66;10245265;28;20051;-62
2021/09/12 23:12:28;;;;;;;2.70;2.20;;;;;;;19.35;59.97;100341.50;10250205;28;20043;-62